sensor_id;sensor_type;location;lat;lon;timestamp;P1;durP1;ratioP1;P2;durP2;ratioP2
75614;SDS011;64199;48.578;-4.520;2023-04-24T00:00:23;1.20;;;0.90;;
75614;SDS011;64199;48.578;-4.520;2023-04-24T00:02:49;1.23;;;0.70;;
75614;SDS011;64199;48.578;-4.520;2023-04-24T00:05:16;0.60;;;0.60;;
75614;SDS011;64199;48.578;-4.520;2023-04-24T00:07:44;1.08;;;0.73;;
75614;SDS011;64199;48.578;-4.520;2023-04-24T00:10:11;0.85;;;0.50;;
75614;SDS011;64199;48.578;-4.520;2023-04-24T00:12:37;0.65;;;0.60;;
75614;SDS011;64199;48.578;-4.520;2023-04-24T00:15:04;1.40;;;0.68;;
75614;SDS011;64199;48.578;-4.520;2023-04-24T00:17:30;3.65;;;0.80;;
75614;SDS011;64199;48.578;-4.520;2023-04-24T00:19:56;1.50;;;0.73;;
75614;SDS011;64199;48.578;-4.520;2023-04-24T00:22:26;1.02;;;0.70;;
75614;SDS011;64199;48.578;-4.520;2023-04-24T00:24:54;1.00;;;0.70;;
75614;SDS011;64199;48.578;-4.520;2023-04-24T00:27:20;1.38;;;0.70;;
75614;SDS011;64199;48.578;-4.520;2023-04-24T00:29:46;0.93;;;0.60;;
75614;SDS011;64199;48.578;-4.520;2023-04-24T00:32:13;2.00;;;0.93;;
75614;SDS011;64199;48.578;-4.520;2023-04-24T00:34:39;1.00;;;0.60;;
75614;SDS011;64199;48.578;-4.520;2023-04-24T00:37:05;0.60;;;0.57;;
75614;SDS011;64199;48.578;-4.520;2023-04-24T00:39:31;0.50;;;0.50;;
75614;SDS011;64199;48.578;-4.520;2023-04-24T00:41:57;0.57;;;0.50;;
75614;SDS011;64199;48.578;-4.520;2023-04-24T00:44:24;0.70;;;0.52;;
75614;SDS011;64199;48.578;-4.520;2023-04-24T00:46:51;0.80;;;0.65;;
75614;SDS011;64199;48.578;-4.520;2023-04-24T00:51:46;0.50;;;0.50;;
75614;SDS011;64199;48.578;-4.520;2023-04-24T00:54:14;1.17;;;0.98;;
75614;SDS011;64199;48.578;-4.520;2023-04-24T00:56:41;2.28;;;0.73;;
75614;SDS011;64199;48.578;-4.520;2023-04-24T00:59:07;2.75;;;0.70;;
75614;SDS011;64199;48.578;-4.520;2023-04-24T01:01:33;1.70;;;0.52;;
75614;SDS011;64199;48.578;-4.520;2023-04-24T01:04:00;0.60;;;0.60;;
75614;SDS011;64199;48.578;-4.520;2023-04-24T01:06:27;1.80;;;0.63;;
75614;SDS011;64199;48.578;-4.520;2023-04-24T01:08:53;3.50;;;0.68;;
75614;SDS011;64199;48.578;-4.520;2023-04-24T01:11:21;0.60;;;0.40;;
75614;SDS011;64199;48.578;-4.520;2023-04-24T01:13:48;1.17;;;0.85;;
75614;SDS011;64199;48.578;-4.520;2023-04-24T01:16:14;0.60;;;0.60;;
75614;SDS011;64199;48.578;-4.520;2023-04-24T01:21:08;1.40;;;0.80;;
75614;SDS011;64199;48.578;-4.520;2023-04-24T01:23:36;0.98;;;0.55;;
75614;SDS011;64199;48.578;-4.520;2023-04-24T01:26:03;0.68;;;0.60;;
75614;SDS011;64199;48.578;-4.520;2023-04-24T01:28:29;0.80;;;0.70;;
75614;SDS011;64199;48.578;-4.520;2023-04-24T01:30:56;1.17;;;0.80;;
75614;SDS011;64199;48.578;-4.520;2023-04-24T01:33:22;1.63;;;1.00;;
75614;SDS011;64199;48.578;-4.520;2023-04-24T01:35:49;1.45;;;0.95;;
75614;SDS011;64199;48.578;-4.520;2023-04-24T01:38:15;1.70;;;0.90;;
75614;SDS011;64199;48.578;-4.520;2023-04-24T01:40:41;0.73;;;0.73;;
75614;SDS011;64199;48.578;-4.520;2023-04-24T01:43:09;2.33;;;1.02;;
75614;SDS011;64199;48.578;-4.520;2023-04-24T01:45:35;0.60;;;0.60;;
75614;SDS011;64199;48.578;-4.520;2023-04-24T01:48:00;1.02;;;0.60;;
75614;SDS011;64199;48.578;-4.520;2023-04-24T01:50:27;1.20;;;0.70;;
75614;SDS011;64199;48.578;-4.520;2023-04-24T01:52:53;0.82;;;0.75;;
75614;SDS011;64199;48.578;-4.520;2023-04-24T01:55:19;1.42;;;0.90;;
75614;SDS011;64199;48.578;-4.520;2023-04-24T01:57:44;0.55;;;0.55;;
75614;SDS011;64199;48.578;-4.520;2023-04-24T02:00:10;0.95;;;0.73;;
75614;SDS011;64199;48.578;-4.520;2023-04-24T02:02:39;2.08;;;0.70;;
75614;SDS011;64199;48.578;-4.520;2023-04-24T02:05:06;0.90;;;0.67;;
75614;SDS011;64199;48.578;-4.520;2023-04-24T02:07:32;1.13;;;0.77;;
75614;SDS011;64199;48.578;-4.520;2023-04-24T02:09:58;0.93;;;0.70;;
75614;SDS011;64199;48.578;-4.520;2023-04-24T02:12:24;0.63;;;0.50;;
75614;SDS011;64199;48.578;-4.520;2023-04-24T02:14:50;1.20;;;0.70;;
75614;SDS011;64199;48.578;-4.520;2023-04-24T02:17:16;3.38;;;0.68;;
75614;SDS011;64199;48.578;-4.520;2023-04-24T02:19:44;1.02;;;0.75;;
75614;SDS011;64199;48.578;-4.520;2023-04-24T02:22:11;1.33;;;0.80;;
75614;SDS011;64199;48.578;-4.520;2023-04-24T02:24:37;0.70;;;0.70;;
75614;SDS011;64199;48.578;-4.520;2023-04-24T02:27:04;1.00;;;0.80;;
75614;SDS011;64199;48.578;-4.520;2023-04-24T02:29:30;0.93;;;0.82;;
75614;SDS011;64199;48.578;-4.520;2023-04-24T02:31:56;2.92;;;0.63;;
75614;SDS011;64199;48.578;-4.520;2023-04-24T02:34:21;1.30;;;0.70;;
75614;SDS011;64199;48.578;-4.520;2023-04-24T02:36:48;2.17;;;0.65;;
75614;SDS011;64199;48.578;-4.520;2023-04-24T02:39:15;2.15;;;0.88;;
75614;SDS011;64199;48.578;-4.520;2023-04-24T02:41:43;3.10;;;0.88;;
75614;SDS011;64199;48.578;-4.520;2023-04-24T02:44:09;2.17;;;0.93;;
75614;SDS011;64199;48.578;-4.520;2023-04-24T02:46:35;1.65;;;0.80;;
75614;SDS011;64199;48.578;-4.520;2023-04-24T02:49:01;0.77;;;0.70;;
75614;SDS011;64199;48.578;-4.520;2023-04-24T02:51:28;1.00;;;0.80;;
75614;SDS011;64199;48.578;-4.520;2023-04-24T02:53:56;1.13;;;0.88;;
75614;SDS011;64199;48.578;-4.520;2023-04-24T02:56:21;1.02;;;0.70;;
75614;SDS011;64199;48.578;-4.520;2023-04-24T02:58:47;1.10;;;0.70;;
75614;SDS011;64199;48.578;-4.520;2023-04-24T03:01:13;1.10;;;0.90;;
75614;SDS011;64199;48.578;-4.520;2023-04-24T03:03:39;1.40;;;0.95;;
75614;SDS011;64199;48.578;-4.520;2023-04-24T03:06:05;1.83;;;0.90;;
75614;SDS011;64199;48.578;-4.520;2023-04-24T03:08:33;2.00;;;0.80;;
75614;SDS011;64199;48.578;-4.520;2023-04-24T03:10:59;0.93;;;0.90;;
75614;SDS011;64199;48.578;-4.520;2023-04-24T03:13:25;1.00;;;0.90;;
75614;SDS011;64199;48.578;-4.520;2023-04-24T03:15:51;1.33;;;0.80;;
75614;SDS011;64199;48.578;-4.520;2023-04-24T03:18:18;2.35;;;1.00;;
75614;SDS011;64199;48.578;-4.520;2023-04-24T03:20:46;1.75;;;0.60;;
75614;SDS011;64199;48.578;-4.520;2023-04-24T03:23:13;0.90;;;0.77;;
75614;SDS011;64199;48.578;-4.520;2023-04-24T03:25:39;1.05;;;0.95;;
75614;SDS011;64199;48.578;-4.520;2023-04-24T03:28:05;1.40;;;0.88;;
75614;SDS011;64199;48.578;-4.520;2023-04-24T03:30:31;0.80;;;0.80;;
75614;SDS011;64199;48.578;-4.520;2023-04-24T03:32:57;3.63;;;0.85;;
75614;SDS011;64199;48.578;-4.520;2023-04-24T03:35:23;1.80;;;0.88;;
75614;SDS011;64199;48.578;-4.520;2023-04-24T03:37:49;2.17;;;1.00;;
75614;SDS011;64199;48.578;-4.520;2023-04-24T03:40:15;0.95;;;0.70;;
75614;SDS011;64199;48.578;-4.520;2023-04-24T03:42:41;2.90;;;1.00;;
75614;SDS011;64199;48.578;-4.520;2023-04-24T03:45:07;1.02;;;0.70;;
75614;SDS011;64199;48.578;-4.520;2023-04-24T03:47:33;1.45;;;0.95;;
75614;SDS011;64199;48.578;-4.520;2023-04-24T03:49:59;0.70;;;0.70;;
75614;SDS011;64199;48.578;-4.520;2023-04-24T03:52:25;1.60;;;0.85;;
75614;SDS011;64199;48.578;-4.520;2023-04-24T03:54:51;1.05;;;0.90;;
75614;SDS011;64199;48.578;-4.520;2023-04-24T03:57:17;4.13;;;0.90;;
75614;SDS011;64199;48.578;-4.520;2023-04-24T03:59:44;1.60;;;0.95;;
75614;SDS011;64199;48.578;-4.520;2023-04-24T04:02:16;1.00;;;0.80;;
75614;SDS011;64199;48.578;-4.520;2023-04-24T04:04:42;0.80;;;0.80;;
75614;SDS011;64199;48.578;-4.520;2023-04-24T04:07:08;1.92;;;0.80;;
75614;SDS011;64199;48.578;-4.520;2023-04-24T04:09:34;1.85;;;0.90;;
75614;SDS011;64199;48.578;-4.520;2023-04-24T04:12:00;1.02;;;0.70;;
75614;SDS011;64199;48.578;-4.520;2023-04-24T04:14:27;1.75;;;0.70;;
75614;SDS011;64199;48.578;-4.520;2023-04-24T04:16:53;2.08;;;1.00;;
75614;SDS011;64199;48.578;-4.520;2023-04-24T04:19:19;0.77;;;0.70;;
75614;SDS011;64199;48.578;-4.520;2023-04-24T04:21:45;1.02;;;0.60;;
75614;SDS011;64199;48.578;-4.520;2023-04-24T04:24:15;1.95;;;0.93;;
75614;SDS011;64199;48.578;-4.520;2023-04-24T04:26:41;1.10;;;0.68;;
75614;SDS011;64199;48.578;-4.520;2023-04-24T04:29:12;1.50;;;0.77;;
75614;SDS011;64199;48.578;-4.520;2023-04-24T04:31:39;1.27;;;0.80;;
75614;SDS011;64199;48.578;-4.520;2023-04-24T04:34:05;0.90;;;0.65;;
75614;SDS011;64199;48.578;-4.520;2023-04-24T04:36:32;1.80;;;0.85;;
75614;SDS011;64199;48.578;-4.520;2023-04-24T04:39:02;4.57;;;0.90;;
75614;SDS011;64199;48.578;-4.520;2023-04-24T04:41:29;0.60;;;0.60;;
75614;SDS011;64199;48.578;-4.520;2023-04-24T04:43:55;1.27;;;0.60;;
75614;SDS011;64199;48.578;-4.520;2023-04-24T04:46:23;1.70;;;0.70;;
75614;SDS011;64199;48.578;-4.520;2023-04-24T04:48:51;1.17;;;0.80;;
75614;SDS011;64199;48.578;-4.520;2023-04-24T04:51:18;0.80;;;0.60;;
75614;SDS011;64199;48.578;-4.520;2023-04-24T04:53:44;0.88;;;0.60;;
75614;SDS011;64199;48.578;-4.520;2023-04-24T04:56:09;1.08;;;0.63;;
75614;SDS011;64199;48.578;-4.520;2023-04-24T04:58:36;0.93;;;0.60;;
75614;SDS011;64199;48.578;-4.520;2023-04-24T05:01:01;0.73;;;0.45;;
75614;SDS011;64199;48.578;-4.520;2023-04-24T05:03:27;1.30;;;0.60;;
75614;SDS011;64199;48.578;-4.520;2023-04-24T05:05:53;0.82;;;0.80;;
75614;SDS011;64199;48.578;-4.520;2023-04-24T05:08:19;1.13;;;0.70;;
75614;SDS011;64199;48.578;-4.520;2023-04-24T05:10:45;0.98;;;0.70;;
75614;SDS011;64199;48.578;-4.520;2023-04-24T05:13:11;0.70;;;0.65;;
75614;SDS011;64199;48.578;-4.520;2023-04-24T05:15:37;2.13;;;0.55;;
75614;SDS011;64199;48.578;-4.520;2023-04-24T05:18:03;0.57;;;0.50;;
75614;SDS011;64199;48.578;-4.520;2023-04-24T05:20:29;1.77;;;0.50;;
75614;SDS011;64199;48.578;-4.520;2023-04-24T05:22:55;0.98;;;0.60;;
75614;SDS011;64199;48.578;-4.520;2023-04-24T05:25:21;1.17;;;0.63;;
75614;SDS011;64199;48.578;-4.520;2023-04-24T05:27:47;1.65;;;0.68;;
75614;SDS011;64199;48.578;-4.520;2023-04-24T05:30:13;0.50;;;0.50;;
75614;SDS011;64199;48.578;-4.520;2023-04-24T05:32:39;1.23;;;0.80;;
75614;SDS011;64199;48.578;-4.520;2023-04-24T05:35:05;0.90;;;0.70;;
75614;SDS011;64199;48.578;-4.520;2023-04-24T05:37:31;1.38;;;1.00;;
75614;SDS011;64199;48.578;-4.520;2023-04-24T05:39:57;1.80;;;0.70;;
75614;SDS011;64199;48.578;-4.520;2023-04-24T05:42:23;0.60;;;0.60;;
75614;SDS011;64199;48.578;-4.520;2023-04-24T05:44:50;1.30;;;0.70;;
75614;SDS011;64199;48.578;-4.520;2023-04-24T05:47:15;1.27;;;0.60;;
75614;SDS011;64199;48.578;-4.520;2023-04-24T05:49:41;1.35;;;0.80;;
75614;SDS011;64199;48.578;-4.520;2023-04-24T05:52:07;2.42;;;0.73;;
75614;SDS011;64199;48.578;-4.520;2023-04-24T05:54:34;1.10;;;0.80;;
75614;SDS011;64199;48.578;-4.520;2023-04-24T05:57:00;2.33;;;0.88;;
75614;SDS011;64199;48.578;-4.520;2023-04-24T05:59:29;2.88;;;0.98;;
75614;SDS011;64199;48.578;-4.520;2023-04-24T06:01:55;1.58;;;0.57;;
75614;SDS011;64199;48.578;-4.520;2023-04-24T06:04:21;3.88;;;1.00;;
75614;SDS011;64199;48.578;-4.520;2023-04-24T06:06:47;1.67;;;0.75;;
75614;SDS011;64199;48.578;-4.520;2023-04-24T06:11:42;1.35;;;0.98;;
75614;SDS011;64199;48.578;-4.520;2023-04-24T06:14:08;0.80;;;0.60;;
75614;SDS011;64199;48.578;-4.520;2023-04-24T06:16:35;2.00;;;0.82;;
75614;SDS011;64199;48.578;-4.520;2023-04-24T06:19:00;0.95;;;0.70;;
75614;SDS011;64199;48.578;-4.520;2023-04-24T06:21:26;1.85;;;0.85;;
75614;SDS011;64199;48.578;-4.520;2023-04-24T06:23:52;1.58;;;0.80;;
75614;SDS011;64199;48.578;-4.520;2023-04-24T06:26:19;2.53;;;0.52;;
75614;SDS011;64199;48.578;-4.520;2023-04-24T06:28:45;5.43;;;0.52;;
75614;SDS011;64199;48.578;-4.520;2023-04-24T06:31:11;1.70;;;0.88;;
75614;SDS011;64199;48.578;-4.520;2023-04-24T06:33:37;0.85;;;0.73;;
75614;SDS011;64199;48.578;-4.520;2023-04-24T06:36:03;0.73;;;0.60;;
75614;SDS011;64199;48.578;-4.520;2023-04-24T06:38:29;0.63;;;0.60;;
75614;SDS011;64199;48.578;-4.520;2023-04-24T06:40:55;1.25;;;0.60;;
75614;SDS011;64199;48.578;-4.520;2023-04-24T06:43:21;1.75;;;0.73;;
75614;SDS011;64199;48.578;-4.520;2023-04-24T06:45:47;1.15;;;0.70;;
75614;SDS011;64199;48.578;-4.520;2023-04-24T06:48:13;3.60;;;1.05;;
75614;SDS011;64199;48.578;-4.520;2023-04-24T06:50:39;1.80;;;0.80;;
75614;SDS011;64199;48.578;-4.520;2023-04-24T06:53:04;0.63;;;0.50;;
75614;SDS011;64199;48.578;-4.520;2023-04-24T06:55:31;1.50;;;0.80;;
75614;SDS011;64199;48.578;-4.520;2023-04-24T06:57:57;1.42;;;0.68;;
75614;SDS011;64199;48.578;-4.520;2023-04-24T07:00:23;0.77;;;0.60;;
75614;SDS011;64199;48.578;-4.520;2023-04-24T07:02:49;0.73;;;0.55;;
75614;SDS011;64199;48.578;-4.520;2023-04-24T07:05:15;1.92;;;0.70;;
75614;SDS011;64199;48.578;-4.520;2023-04-24T07:07:41;1.20;;;0.68;;
75614;SDS011;64199;48.578;-4.520;2023-04-24T07:10:07;2.38;;;0.90;;
75614;SDS011;64199;48.578;-4.520;2023-04-24T07:12:34;1.38;;;0.80;;
75614;SDS011;64199;48.578;-4.520;2023-04-24T07:15:00;1.65;;;0.70;;
75614;SDS011;64199;48.578;-4.520;2023-04-24T07:17:26;1.20;;;0.70;;
75614;SDS011;64199;48.578;-4.520;2023-04-24T07:19:52;1.42;;;0.80;;
75614;SDS011;64199;48.578;-4.520;2023-04-24T07:22:18;3.75;;;0.70;;
75614;SDS011;64199;48.578;-4.520;2023-04-24T07:24:44;0.60;;;0.50;;
75614;SDS011;64199;48.578;-4.520;2023-04-24T07:27:10;1.20;;;0.88;;
75614;SDS011;64199;48.578;-4.520;2023-04-24T07:29:37;1.30;;;0.85;;
75614;SDS011;64199;48.578;-4.520;2023-04-24T07:32:03;1.00;;;0.70;;
75614;SDS011;64199;48.578;-4.520;2023-04-24T07:34:29;1.35;;;0.88;;
75614;SDS011;64199;48.578;-4.520;2023-04-24T07:36:55;1.95;;;0.70;;
75614;SDS011;64199;48.578;-4.520;2023-04-24T07:39:21;0.70;;;0.70;;
75614;SDS011;64199;48.578;-4.520;2023-04-24T07:41:46;1.02;;;0.80;;
75614;SDS011;64199;48.578;-4.520;2023-04-24T07:44:12;1.50;;;1.00;;
75614;SDS011;64199;48.578;-4.520;2023-04-24T07:46:38;2.15;;;1.00;;
75614;SDS011;64199;48.578;-4.520;2023-04-24T07:49:05;1.15;;;0.80;;
75614;SDS011;64199;48.578;-4.520;2023-04-24T07:51:31;0.70;;;0.57;;
75614;SDS011;64199;48.578;-4.520;2023-04-24T07:53:59;4.18;;;0.90;;
75614;SDS011;64199;48.578;-4.520;2023-04-24T07:56:25;3.17;;;0.85;;
75614;SDS011;64199;48.578;-4.520;2023-04-24T07:58:51;1.38;;;0.85;;
75614;SDS011;64199;48.578;-4.520;2023-04-24T08:01:17;1.33;;;0.80;;
75614;SDS011;64199;48.578;-4.520;2023-04-24T08:03:45;3.70;;;0.95;;
75614;SDS011;64199;48.578;-4.520;2023-04-24T08:06:11;2.70;;;0.88;;
75614;SDS011;64199;48.578;-4.520;2023-04-24T08:08:37;3.00;;;0.90;;
75614;SDS011;64199;48.578;-4.520;2023-04-24T08:11:03;1.85;;;0.90;;
75614;SDS011;64199;48.578;-4.520;2023-04-24T08:13:29;1.00;;;0.80;;
75614;SDS011;64199;48.578;-4.520;2023-04-24T08:15:56;1.20;;;0.75;;
75614;SDS011;64199;48.578;-4.520;2023-04-24T08:18:23;1.30;;;0.80;;
75614;SDS011;64199;48.578;-4.520;2023-04-24T08:20:49;1.77;;;0.90;;
75614;SDS011;64199;48.578;-4.520;2023-04-24T08:23:15;2.33;;;0.85;;
75614;SDS011;64199;48.578;-4.520;2023-04-24T08:25:41;0.98;;;0.63;;
75614;SDS011;64199;48.578;-4.520;2023-04-24T08:28:07;1.85;;;1.00;;
75614;SDS011;64199;48.578;-4.520;2023-04-24T08:30:34;2.67;;;1.40;;
75614;SDS011;64199;48.578;-4.520;2023-04-24T08:33:00;2.92;;;1.00;;
75614;SDS011;64199;48.578;-4.520;2023-04-24T08:35:26;2.03;;;1.20;;
75614;SDS011;64199;48.578;-4.520;2023-04-24T08:37:52;1.63;;;1.00;;
75614;SDS011;64199;48.578;-4.520;2023-04-24T08:40:18;1.40;;;1.00;;
75614;SDS011;64199;48.578;-4.520;2023-04-24T08:42:53;3.55;;;1.20;;
75614;SDS011;64199;48.578;-4.520;2023-04-24T08:45:21;1.80;;;1.08;;
75614;SDS011;64199;48.578;-4.520;2023-04-24T08:47:47;1.63;;;1.15;;
75614;SDS011;64199;48.578;-4.520;2023-04-24T08:50:14;1.50;;;1.05;;
75614;SDS011;64199;48.578;-4.520;2023-04-24T08:52:41;4.25;;;1.08;;
75614;SDS011;64199;48.578;-4.520;2023-04-24T08:55:08;1.33;;;0.80;;
75614;SDS011;64199;48.578;-4.520;2023-04-24T08:57:34;1.33;;;1.20;;
75614;SDS011;64199;48.578;-4.520;2023-04-24T09:00:03;5.57;;;1.58;;
75614;SDS011;64199;48.578;-4.520;2023-04-24T09:02:31;3.70;;;1.20;;
75614;SDS011;64199;48.578;-4.520;2023-04-24T09:04:59;1.77;;;1.00;;
75614;SDS011;64199;48.578;-4.520;2023-04-24T09:07:26;2.23;;;1.20;;
75614;SDS011;64199;48.578;-4.520;2023-04-24T09:09:55;4.88;;;1.20;;
75614;SDS011;64199;48.578;-4.520;2023-04-24T09:12:22;2.40;;;1.08;;
75614;SDS011;64199;48.578;-4.520;2023-04-24T09:14:47;2.03;;;1.00;;
75614;SDS011;64199;48.578;-4.520;2023-04-24T09:17:15;7.05;;;1.45;;
75614;SDS011;64199;48.578;-4.520;2023-04-24T09:19:41;1.92;;;1.08;;
75614;SDS011;64199;48.578;-4.520;2023-04-24T09:22:07;5.55;;;1.38;;
75614;SDS011;64199;48.578;-4.520;2023-04-24T09:24:34;2.55;;;1.10;;
75614;SDS011;64199;48.578;-4.520;2023-04-24T09:27:00;1.67;;;1.20;;
75614;SDS011;64199;48.578;-4.520;2023-04-24T09:29:27;3.38;;;1.00;;
75614;SDS011;64199;48.578;-4.520;2023-04-24T09:31:53;2.40;;;1.20;;
75614;SDS011;64199;48.578;-4.520;2023-04-24T09:34:23;2.00;;;1.15;;
75614;SDS011;64199;48.578;-4.520;2023-04-24T09:36:52;2.13;;;1.17;;
75614;SDS011;64199;48.578;-4.520;2023-04-24T09:39:19;2.80;;;1.10;;
75614;SDS011;64199;48.578;-4.520;2023-04-24T09:44:15;1.70;;;1.10;;
75614;SDS011;64199;48.578;-4.520;2023-04-24T09:46:43;2.20;;;1.20;;
75614;SDS011;64199;48.578;-4.520;2023-04-24T09:49:13;3.53;;;1.40;;
75614;SDS011;64199;48.578;-4.520;2023-04-24T09:51:40;1.80;;;0.98;;
75614;SDS011;64199;48.578;-4.520;2023-04-24T09:54:27;1.95;;;1.20;;
75614;SDS011;64199;48.578;-4.520;2023-04-24T09:56:52;2.30;;;1.15;;
75614;SDS011;64199;48.578;-4.520;2023-04-24T09:59:20;2.80;;;1.42;;
75614;SDS011;64199;48.578;-4.520;2023-04-24T10:01:46;2.25;;;1.20;;
75614;SDS011;64199;48.578;-4.520;2023-04-24T10:04:20;2.17;;;1.35;;
75614;SDS011;64199;48.578;-4.520;2023-04-24T10:06:49;3.28;;;1.23;;
75614;SDS011;64199;48.578;-4.520;2023-04-24T10:09:16;4.13;;;1.25;;
75614;SDS011;64199;48.578;-4.520;2023-04-24T10:11:44;2.45;;;0.98;;
75614;SDS011;64199;48.578;-4.520;2023-04-24T10:14:18;2.15;;;1.27;;
75614;SDS011;64199;48.578;-4.520;2023-04-24T10:16:46;3.60;;;1.35;;
75614;SDS011;64199;48.578;-4.520;2023-04-24T10:19:12;2.95;;;1.23;;
75614;SDS011;64199;48.578;-4.520;2023-04-24T10:21:40;1.95;;;1.08;;
75614;SDS011;64199;48.578;-4.520;2023-04-24T10:24:12;2.30;;;1.00;;
75614;SDS011;64199;48.578;-4.520;2023-04-24T10:26:40;1.83;;;1.10;;
75614;SDS011;64199;48.578;-4.520;2023-04-24T10:29:07;2.33;;;1.50;;
75614;SDS011;64199;48.578;-4.520;2023-04-24T10:31:35;1.92;;;1.13;;
75614;SDS011;64199;48.578;-4.520;2023-04-24T10:34:04;4.47;;;1.42;;
75614;SDS011;64199;48.578;-4.520;2023-04-24T10:36:34;3.58;;;1.33;;
75614;SDS011;64199;48.578;-4.520;2023-04-24T10:39:02;3.60;;;1.20;;
75614;SDS011;64199;48.578;-4.520;2023-04-24T10:41:31;2.15;;;1.13;;
75614;SDS011;64199;48.578;-4.520;2023-04-24T10:44:07;2.53;;;1.40;;
75614;SDS011;64199;48.578;-4.520;2023-04-24T10:46:37;3.50;;;1.27;;
75614;SDS011;64199;48.578;-4.520;2023-04-24T10:49:05;2.17;;;1.13;;
75614;SDS011;64199;48.578;-4.520;2023-04-24T10:51:44;3.58;;;1.30;;
75614;SDS011;64199;48.578;-4.520;2023-04-24T10:54:24;3.05;;;1.42;;
75614;SDS011;64199;48.578;-4.520;2023-04-24T10:59:38;2.90;;;1.30;;
75614;SDS011;64199;48.578;-4.520;2023-04-24T11:02:06;2.33;;;1.10;;
75614;SDS011;64199;48.578;-4.520;2023-04-24T11:04:33;1.50;;;1.08;;
75614;SDS011;64199;48.578;-4.520;2023-04-24T11:07:00;1.58;;;0.90;;
75614;SDS011;64199;48.578;-4.520;2023-04-24T11:09:27;2.15;;;1.10;;
75614;SDS011;64199;48.578;-4.520;2023-04-24T11:12:05;2.22;;;1.20;;
75614;SDS011;64199;48.578;-4.520;2023-04-24T11:17:28;2.70;;;1.27;;
75614;SDS011;64199;48.578;-4.520;2023-04-24T11:20:05;2.30;;;1.13;;
75614;SDS011;64199;48.578;-4.520;2023-04-24T11:22:34;3.60;;;1.00;;
75614;SDS011;64199;48.578;-4.520;2023-04-24T11:25:02;3.15;;;1.20;;
75614;SDS011;64199;48.578;-4.520;2023-04-24T11:27:32;2.72;;;1.00;;
75614;SDS011;64199;48.578;-4.520;2023-04-24T11:30:05;3.28;;;1.20;;
75614;SDS011;64199;48.578;-4.520;2023-04-24T11:32:41;1.90;;;0.90;;
75614;SDS011;64199;48.578;-4.520;2023-04-24T11:35:08;3.72;;;1.25;;
75614;SDS011;64199;48.578;-4.520;2023-04-24T11:37:43;3.00;;;1.15;;
75614;SDS011;64199;48.578;-4.520;2023-04-24T11:40:16;1.70;;;0.75;;
75614;SDS011;64199;48.578;-4.520;2023-04-24T11:42:53;2.58;;;1.13;;
75614;SDS011;64199;48.578;-4.520;2023-04-24T11:45:23;1.33;;;0.82;;
75614;SDS011;64199;48.578;-4.520;2023-04-24T11:47:50;1.70;;;1.05;;
75614;SDS011;64199;48.578;-4.520;2023-04-24T11:50:17;3.55;;;1.02;;
75614;SDS011;64199;48.578;-4.520;2023-04-24T11:52:46;1.60;;;0.88;;
75614;SDS011;64199;48.578;-4.520;2023-04-24T11:57:39;2.60;;;1.23;;
75614;SDS011;64199;48.578;-4.520;2023-04-24T12:00:15;1.15;;;0.70;;
75614;SDS011;64199;48.578;-4.520;2023-04-24T12:02:44;0.98;;;0.77;;
75614;SDS011;64199;48.578;-4.520;2023-04-24T12:05:20;1.75;;;1.00;;
75614;SDS011;64199;48.578;-4.520;2023-04-24T12:07:50;3.97;;;1.27;;
75614;SDS011;64199;48.578;-4.520;2023-04-24T12:10:20;3.90;;;0.88;;
75614;SDS011;64199;48.578;-4.520;2023-04-24T12:12:47;3.08;;;1.13;;
75614;SDS011;64199;48.578;-4.520;2023-04-24T12:15:15;1.85;;;0.90;;
75614;SDS011;64199;48.578;-4.520;2023-04-24T12:17:42;1.30;;;0.90;;
75614;SDS011;64199;48.578;-4.520;2023-04-24T12:20:08;1.23;;;0.70;;
75614;SDS011;64199;48.578;-4.520;2023-04-24T12:22:44;1.48;;;0.80;;
75614;SDS011;64199;48.578;-4.520;2023-04-24T12:25:26;2.70;;;0.90;;
75614;SDS011;64199;48.578;-4.520;2023-04-24T12:27:54;1.65;;;0.90;;
75614;SDS011;64199;48.578;-4.520;2023-04-24T12:30:39;0.90;;;0.80;;
75614;SDS011;64199;48.578;-4.520;2023-04-24T12:33:18;2.17;;;1.13;;
75614;SDS011;64199;48.578;-4.520;2023-04-24T12:35:45;1.42;;;0.75;;
75614;SDS011;64199;48.578;-4.520;2023-04-24T12:38:12;1.23;;;0.90;;
75614;SDS011;64199;48.578;-4.520;2023-04-24T12:40:39;1.88;;;0.95;;
75614;SDS011;64199;48.578;-4.520;2023-04-24T12:43:16;1.17;;;0.90;;
75614;SDS011;64199;48.578;-4.520;2023-04-24T12:45:43;2.28;;;0.85;;
75614;SDS011;64199;48.578;-4.520;2023-04-24T12:48:10;1.55;;;0.93;;
75614;SDS011;64199;48.578;-4.520;2023-04-24T12:50:36;2.50;;;1.40;;
75614;SDS011;64199;48.578;-4.520;2023-04-24T12:53:02;1.40;;;1.00;;
75614;SDS011;64199;48.578;-4.520;2023-04-24T12:55:28;1.38;;;0.85;;
75614;SDS011;64199;48.578;-4.520;2023-04-24T12:57:54;1.10;;;0.70;;
75614;SDS011;64199;48.578;-4.520;2023-04-24T13:00:21;3.50;;;1.20;;
75614;SDS011;64199;48.578;-4.520;2023-04-24T13:02:47;1.17;;;0.75;;
75614;SDS011;64199;48.578;-4.520;2023-04-24T13:05:12;1.63;;;0.90;;
75614;SDS011;64199;48.578;-4.520;2023-04-24T13:07:39;2.08;;;0.95;;
75614;SDS011;64199;48.578;-4.520;2023-04-24T13:10:05;1.45;;;1.00;;
75614;SDS011;64199;48.578;-4.520;2023-04-24T13:12:31;1.27;;;0.90;;
75614;SDS011;64199;48.578;-4.520;2023-04-24T13:14:57;1.27;;;0.90;;
75614;SDS011;64199;48.578;-4.520;2023-04-24T13:17:24;2.00;;;1.15;;
75614;SDS011;64199;48.578;-4.520;2023-04-24T13:19:50;1.88;;;0.82;;
75614;SDS011;64199;48.578;-4.520;2023-04-24T13:22:16;3.33;;;1.35;;
75614;SDS011;64199;48.578;-4.520;2023-04-24T13:24:45;1.90;;;0.95;;
75614;SDS011;64199;48.578;-4.520;2023-04-24T13:27:13;1.47;;;1.17;;
75614;SDS011;64199;48.578;-4.520;2023-04-24T13:29:39;4.20;;;1.00;;
75614;SDS011;64199;48.578;-4.520;2023-04-24T13:32:05;5.05;;;1.00;;
75614;SDS011;64199;48.578;-4.520;2023-04-24T13:34:31;5.18;;;1.40;;
75614;SDS011;64199;48.578;-4.520;2023-04-24T13:36:57;2.30;;;1.17;;
75614;SDS011;64199;48.578;-4.520;2023-04-24T13:39:24;4.00;;;1.27;;
75614;SDS011;64199;48.578;-4.520;2023-04-24T13:41:51;6.22;;;1.10;;
75614;SDS011;64199;48.578;-4.520;2023-04-24T13:44:17;10.32;;;1.55;;
75614;SDS011;64199;48.578;-4.520;2023-04-24T13:46:45;5.57;;;1.05;;
75614;SDS011;64199;48.578;-4.520;2023-04-24T13:49:13;2.60;;;1.07;;
75614;SDS011;64199;48.578;-4.520;2023-04-24T13:51:39;2.75;;;0.90;;
75614;SDS011;64199;48.578;-4.520;2023-04-24T13:54:06;5.18;;;1.50;;
75614;SDS011;64199;48.578;-4.520;2023-04-24T13:56:33;3.75;;;1.08;;
75614;SDS011;64199;48.578;-4.520;2023-04-24T13:58:59;5.70;;;1.33;;
75614;SDS011;64199;48.578;-4.520;2023-04-24T14:01:25;6.63;;;1.20;;
75614;SDS011;64199;48.578;-4.520;2023-04-24T14:03:52;4.05;;;1.45;;
75614;SDS011;64199;48.578;-4.520;2023-04-24T14:06:18;4.22;;;1.00;;
75614;SDS011;64199;48.578;-4.520;2023-04-24T14:08:47;3.42;;;1.25;;
75614;SDS011;64199;48.578;-4.520;2023-04-24T14:11:13;4.00;;;0.90;;
75614;SDS011;64199;48.578;-4.520;2023-04-24T14:13:43;3.95;;;0.70;;
75614;SDS011;64199;48.578;-4.520;2023-04-24T14:16:09;12.00;;;1.30;;
75614;SDS011;64199;48.578;-4.520;2023-04-24T14:18:36;4.55;;;1.08;;
75614;SDS011;64199;48.578;-4.520;2023-04-24T14:21:02;1.83;;;1.00;;
75614;SDS011;64199;48.578;-4.520;2023-04-24T14:23:29;1.75;;;0.90;;
75614;SDS011;64199;48.578;-4.520;2023-04-24T14:25:55;3.15;;;1.00;;
75614;SDS011;64199;48.578;-4.520;2023-04-24T14:28:22;1.65;;;0.90;;
75614;SDS011;64199;48.578;-4.520;2023-04-24T14:30:48;2.10;;;1.00;;
75614;SDS011;64199;48.578;-4.520;2023-04-24T14:33:14;2.00;;;1.20;;
75614;SDS011;64199;48.578;-4.520;2023-04-24T14:35:40;1.25;;;0.90;;
75614;SDS011;64199;48.578;-4.520;2023-04-24T14:38:09;2.55;;;0.93;;
75614;SDS011;64199;48.578;-4.520;2023-04-24T14:40:36;3.92;;;1.00;;
75614;SDS011;64199;48.578;-4.520;2023-04-24T14:43:02;2.75;;;1.30;;
75614;SDS011;64199;48.578;-4.520;2023-04-24T14:45:28;2.13;;;1.13;;
75614;SDS011;64199;48.578;-4.520;2023-04-24T14:47:55;4.75;;;0.93;;
75614;SDS011;64199;48.578;-4.520;2023-04-24T14:50:21;2.53;;;1.00;;